sensor_id;sensor_type;location;lat;lon;timestamp;pressure;altitude;pressure_sealevel;temperature;humidity
4814;BME280;15375;48.540;9.268;2022-11-14T00:00:28;97267.72;;;0.62;100.00
4814;BME280;15375;48.540;9.268;2022-11-14T00:02:54;97249.06;;;0.50;100.00
4814;BME280;15375;48.540;9.268;2022-11-14T00:05:20;97268.97;;;0.68;100.00
4814;BME280;15375;48.540;9.268;2022-11-14T00:07:45;97279.19;;;0.82;100.00
4814;BME280;15375;48.540;9.268;2022-11-14T00:10:12;97242.44;;;0.44;100.00
4814;BME280;15375;48.540;9.268;2022-11-14T00:12:38;97243.69;;;0.31;100.00
4814;BME280;15375;48.540;9.268;2022-11-14T00:15:03;97200.53;;;-0.18;100.00
4814;BME280;15375;48.540;9.268;2022-11-14T00:17:29;97285.50;;;0.51;100.00
4814;BME280;15375;48.540;9.268;2022-11-14T00:19:54;97300.97;;;0.57;100.00
4814;BME280;15375;48.540;9.268;2022-11-14T00:22:19;97243.97;;;0.26;100.00
4814;BME280;15375;48.540;9.268;2022-11-14T00:24:45;97258.72;;;0.35;100.00
4814;BME280;15375;48.540;9.268;2022-11-14T00:27:10;97299.78;;;0.74;100.00
4814;BME280;15375;48.540;9.268;2022-11-14T00:29:36;97308.72;;;0.82;100.00
4814;BME280;15375;48.540;9.268;2022-11-14T00:32:02;97265.66;;;0.55;100.00
4814;BME280;15375;48.540;9.268;2022-11-14T00:34:28;97256.91;;;0.58;100.00
4814;BME280;15375;48.540;9.268;2022-11-14T00:36:53;97283.25;;;0.72;100.00
4814;BME280;15375;48.540;9.268;2022-11-14T00:39:19;97272.38;;;0.65;100.00
4814;BME280;15375;48.540;9.268;2022-11-14T00:41:44;97276.59;;;0.66;100.00
4814;BME280;15375;48.540;9.268;2022-11-14T00:44:09;97236.56;;;0.38;100.00
4814;BME280;15375;48.540;9.268;2022-11-14T00:46:35;97283.59;;;0.71;100.00
4814;BME280;15375;48.540;9.268;2022-11-14T00:49:01;97285.16;;;0.72;100.00
4814;BME280;15375;48.540;9.268;2022-11-14T00:51:26;97288.25;;;0.74;100.00
4814;BME280;15375;48.540;9.268;2022-11-14T00:53:52;97255.66;;;0.52;100.00
4814;BME280;15375;48.540;9.268;2022-11-14T00:56:17;97268.50;;;0.62;100.00
4814;BME280;15375;48.540;9.268;2022-11-14T00:58:43;97240.53;;;0.44;100.00
4814;BME280;15375;48.540;9.268;2022-11-14T01:01:08;97268.22;;;0.68;100.00
4814;BME280;15375;48.540;9.268;2022-11-14T01:03:33;97246.16;;;0.58;100.00
4814;BME280;15375;48.540;9.268;2022-11-14T01:06:04;97265.25;;;0.73;100.00
4814;BME280;15375;48.540;9.268;2022-11-14T01:08:29;97235.50;;;0.43;100.00
4814;BME280;15375;48.540;9.268;2022-11-14T01:10:55;97258.31;;;0.52;100.00
4814;BME280;15375;48.540;9.268;2022-11-14T01:13:20;97228.78;;;0.33;100.00
4814;BME280;15375;48.540;9.268;2022-11-14T01:15:47;97264.53;;;0.56;100.00
4814;BME280;15375;48.540;9.268;2022-11-14T01:18:19;97269.75;;;0.69;100.00
4814;BME280;15375;48.540;9.268;2022-11-14T01:20:46;97272.84;;;0.71;100.00
4814;BME280;15375;48.540;9.268;2022-11-14T01:23:13;97199.44;;;0.21;100.00
4814;BME280;15375;48.540;9.268;2022-11-14T01:25:40;97244.91;;;0.52;100.00
4814;BME280;15375;48.540;9.268;2022-11-14T01:28:17;97278.94;;;0.68;100.00
4814;BME280;15375;48.540;9.268;2022-11-14T01:30:44;97224.88;;;0.27;100.00
4814;BME280;15375;48.540;9.268;2022-11-14T01:33:09;97261.72;;;0.49;100.00
4814;BME280;15375;48.540;9.268;2022-11-14T01:35:36;97263.97;;;0.47;100.00
4814;BME280;15375;48.540;9.268;2022-11-14T01:38:02;97281.13;;;0.62;100.00
4814;BME280;15375;48.540;9.268;2022-11-14T01:40:28;97243.91;;;0.41;100.00
4814;BME280;15375;48.540;9.268;2022-11-14T01:48:28;97258.44;;;0.40;100.00
4814;BME280;15375;48.540;9.268;2022-11-14T01:50:58;97217.22;;;0.10;100.00
4814;BME280;15375;48.540;9.268;2022-11-14T01:53:25;97230.41;;;0.19;100.00
4814;BME280;15375;48.540;9.268;2022-11-14T01:55:54;97220.06;;;0.17;100.00
4814;BME280;15375;48.540;9.268;2022-11-14T01:58:21;97250.69;;;0.35;100.00
4814;BME280;15375;48.540;9.268;2022-11-14T02:00:46;97193.84;;;-0.09;100.00
4814;BME280;15375;48.540;9.268;2022-11-14T02:03:13;97187.09;;;-0.37;100.00
4814;BME280;15375;48.540;9.268;2022-11-14T02:05:39;97188.50;;;-0.43;100.00
4814;BME280;15375;48.540;9.268;2022-11-14T02:08:08;97186.53;;;-0.27;100.00
4814;BME280;15375;48.540;9.268;2022-11-14T02:10:35;97230.56;;;0.07;100.00
4814;BME280;15375;48.540;9.268;2022-11-14T02:13:00;97238.09;;;0.20;100.00
4814;BME280;15375;48.540;9.268;2022-11-14T02:15:26;97243.47;;;0.20;100.00
4814;BME280;15375;48.540;9.268;2022-11-14T02:17:52;97250.53;;;0.28;100.00
4814;BME280;15375;48.540;9.268;2022-11-14T02:20:25;97254.00;;;0.29;100.00
4814;BME280;15375;48.540;9.268;2022-11-14T02:22:55;97255.19;;;0.31;100.00
4814;BME280;15375;48.540;9.268;2022-11-14T02:25:21;97227.75;;;0.19;100.00
4814;BME280;15375;48.540;9.268;2022-11-14T02:27:46;97233.38;;;0.14;100.00
4814;BME280;15375;48.540;9.268;2022-11-14T02:30:15;97238.03;;;0.17;100.00
4814;BME280;15375;48.540;9.268;2022-11-14T02:32:40;97219.41;;;0.05;100.00
4814;BME280;15375;48.540;9.268;2022-11-14T02:35:06;97241.38;;;0.29;100.00
4814;BME280;15375;48.540;9.268;2022-11-14T02:37:31;97242.06;;;0.26;100.00
4814;BME280;15375;48.540;9.268;2022-11-14T02:39:56;97221.03;;;0.09;100.00
4814;BME280;15375;48.540;9.268;2022-11-14T02:42:22;97249.00;;;0.27;100.00
4814;BME280;15375;48.540;9.268;2022-11-14T02:44:47;97230.19;;;0.08;100.00
4814;BME280;15375;48.540;9.268;2022-11-14T02:47:13;97224.84;;;0.08;100.00
4814;BME280;15375;48.540;9.268;2022-11-14T02:49:38;97174.03;;;-0.23;100.00
4814;BME280;15375;48.540;9.268;2022-11-14T02:52:03;97146.06;;;-0.41;100.00
4814;BME280;15375;48.540;9.268;2022-11-14T02:54:29;97248.63;;;0.29;100.00
4814;BME280;15375;48.540;9.268;2022-11-14T02:56:54;97198.66;;;0.02;100.00
4814;BME280;15375;48.540;9.268;2022-11-14T02:59:19;97231.75;;;0.09;100.00
4814;BME280;15375;48.540;9.268;2022-11-14T03:01:45;97181.63;;;-0.25;100.00
4814;BME280;15375;48.540;9.268;2022-11-14T03:04:10;97157.47;;;-0.44;100.00
4814;BME280;15375;48.540;9.268;2022-11-14T03:06:36;97217.63;;;-0.07;100.00
4814;BME280;15375;48.540;9.268;2022-11-14T03:09:01;97211.28;;;0.01;100.00
4814;BME280;15375;48.540;9.268;2022-11-14T03:11:27;97146.06;;;-0.41;100.00
4814;BME280;15375;48.540;9.268;2022-11-14T03:13:52;97146.44;;;-0.43;100.00
4814;BME280;15375;48.540;9.268;2022-11-14T03:16:18;97220.66;;;0.11;100.00
4814;BME280;15375;48.540;9.268;2022-11-14T03:18:43;97205.09;;;0.16;100.00
4814;BME280;15375;48.540;9.268;2022-11-14T03:21:14;97223.66;;;0.25;100.00
4814;BME280;15375;48.540;9.268;2022-11-14T03:23:41;97202.59;;;0.08;100.00
4814;BME280;15375;48.540;9.268;2022-11-14T03:26:08;97217.50;;;0.24;100.00
4814;BME280;15375;48.540;9.268;2022-11-14T03:28:34;97212.06;;;0.21;100.00
4814;BME280;15375;48.540;9.268;2022-11-14T03:31:00;97201.75;;;0.23;100.00
4814;BME280;15375;48.540;9.268;2022-11-14T03:33:25;97214.56;;;0.29;100.00
4814;BME280;15375;48.540;9.268;2022-11-14T03:35:51;97185.81;;;0.11;100.00
4814;BME280;15375;48.540;9.268;2022-11-14T03:38:17;97194.09;;;0.02;100.00
4814;BME280;15375;48.540;9.268;2022-11-14T03:40:43;97222.09;;;0.05;100.00
4814;BME280;15375;48.540;9.268;2022-11-14T03:43:08;97211.28;;;0.01;100.00
4814;BME280;15375;48.540;9.268;2022-11-14T03:45:35;97150.31;;;-0.21;100.00
4814;BME280;15375;48.540;9.268;2022-11-14T03:48:01;97184.06;;;-0.01;100.00
4814;BME280;15375;48.540;9.268;2022-11-14T03:50:26;97211.09;;;0.10;100.00
4814;BME280;15375;48.540;9.268;2022-11-14T03:52:51;97224.69;;;0.20;100.00
4814;BME280;15375;48.540;9.268;2022-11-14T03:55:17;97221.09;;;0.13;100.00
4814;BME280;15375;48.540;9.268;2022-11-14T03:57:42;97206.28;;;0.19;100.00
4814;BME280;15375;48.540;9.268;2022-11-14T04:00:08;97202.25;;;0.28;100.00
4814;BME280;15375;48.540;9.268;2022-11-14T04:02:33;97194.22;;;0.28;100.00
4814;BME280;15375;48.540;9.268;2022-11-14T04:04:59;97176.41;;;0.20;100.00
4814;BME280;15375;48.540;9.268;2022-11-14T04:07:24;97176.66;;;0.12;100.00
4814;BME280;15375;48.540;9.268;2022-11-14T04:09:49;97175.50;;;0.13;100.00
4814;BME280;15375;48.540;9.268;2022-11-14T04:12:16;97176.00;;;0.18;100.00
4814;BME280;15375;48.540;9.268;2022-11-14T04:14:42;97201.63;;;0.35;100.00
4814;BME280;15375;48.540;9.268;2022-11-14T04:17:07;97196.06;;;0.24;100.00
4814;BME280;15375;48.540;9.268;2022-11-14T04:19:32;97156.59;;;0.06;100.00
4814;BME280;15375;48.540;9.268;2022-11-14T04:21:58;97184.41;;;0.17;100.00
4814;BME280;15375;48.540;9.268;2022-11-14T04:24:23;97197.53;;;0.41;100.00
4814;BME280;15375;48.540;9.268;2022-11-14T04:26:48;97098.06;;;-0.31;100.00
4814;BME280;15375;48.540;9.268;2022-11-14T04:29:14;97170.06;;;0.28;100.00
4814;BME280;15375;48.540;9.268;2022-11-14T04:31:39;97158.63;;;0.31;100.00
4814;BME280;15375;48.540;9.268;2022-11-14T04:34:04;97164.25;;;0.45;100.00
4814;BME280;15375;48.540;9.268;2022-11-14T04:36:30;97147.28;;;0.19;100.00
4814;BME280;15375;48.540;9.268;2022-11-14T04:38:55;97160.47;;;0.08;100.00
4814;BME280;15375;48.540;9.268;2022-11-14T04:41:20;97148.97;;;0.08;100.00
4814;BME280;15375;48.540;9.268;2022-11-14T04:43:46;97166.72;;;0.12;100.00
4814;BME280;15375;48.540;9.268;2022-11-14T04:46:11;97180.31;;;0.23;100.00
4814;BME280;15375;48.540;9.268;2022-11-14T04:48:36;97153.00;;;0.17;100.00
4814;BME280;15375;48.540;9.268;2022-11-14T04:51:02;97153.06;;;0.21;100.00
4814;BME280;15375;48.540;9.268;2022-11-14T04:53:27;97160.91;;;0.29;100.00
4814;BME280;15375;48.540;9.268;2022-11-14T04:55:52;97145.94;;;0.28;100.00
4814;BME280;15375;48.540;9.268;2022-11-14T04:58:18;97130.25;;;0.30;100.00
4814;BME280;15375;48.540;9.268;2022-11-14T05:00:43;97138.16;;;0.42;100.00
4814;BME280;15375;48.540;9.268;2022-11-14T05:03:08;97162.72;;;0.44;100.00
4814;BME280;15375;48.540;9.268;2022-11-14T05:05:34;97121.94;;;0.16;100.00
4814;BME280;15375;48.540;9.268;2022-11-14T05:07:59;97156.31;;;0.30;100.00
4814;BME280;15375;48.540;9.268;2022-11-14T05:10:24;97126.03;;;0.10;100.00
4814;BME280;15375;48.540;9.268;2022-11-14T05:12:53;97166.97;;;0.26;100.00
4814;BME280;15375;48.540;9.268;2022-11-14T05:15:19;97073.94;;;-0.31;100.00
4814;BME280;15375;48.540;9.268;2022-11-14T05:17:45;97151.00;;;0.33;100.00
4814;BME280;15375;48.540;9.268;2022-11-14T05:20:10;97116.19;;;0.14;100.00
4814;BME280;15375;48.540;9.268;2022-11-14T05:22:36;97106.97;;;0.15;100.00
4814;BME280;15375;48.540;9.268;2022-11-14T05:25:01;97108.69;;;0.04;100.00
4814;BME280;15375;48.540;9.268;2022-11-14T05:27:27;97140.28;;;0.33;100.00
4814;BME280;15375;48.540;9.268;2022-11-14T05:29:53;97144.25;;;0.39;100.00
4814;BME280;15375;48.540;9.268;2022-11-14T05:32:20;97116.09;;;0.30;100.00
4814;BME280;15375;48.540;9.268;2022-11-14T05:34:45;97140.69;;;0.54;100.00
4814;BME280;15375;48.540;9.268;2022-11-14T05:37:10;97100.03;;;0.33;100.00
4814;BME280;15375;48.540;9.268;2022-11-14T05:39:36;97126.09;;;0.33;100.00
4814;BME280;15375;48.540;9.268;2022-11-14T05:42:01;97118.81;;;0.33;100.00
4814;BME280;15375;48.540;9.268;2022-11-14T05:44:26;97105.81;;;0.35;100.00
4814;BME280;15375;48.540;9.268;2022-11-14T05:46:52;97116.13;;;0.33;100.00
4814;BME280;15375;48.540;9.268;2022-11-14T05:49:17;97123.59;;;0.43;100.00
4814;BME280;15375;48.540;9.268;2022-11-14T05:51:42;97126.34;;;0.47;100.00
4814;BME280;15375;48.540;9.268;2022-11-14T05:54:08;97140.31;;;0.56;100.00
4814;BME280;15375;48.540;9.268;2022-11-14T05:56:33;97142.41;;;0.66;100.00
4814;BME280;15375;48.540;9.268;2022-11-14T05:58:58;97122.84;;;0.65;100.00
4814;BME280;15375;48.540;9.268;2022-11-14T06:01:24;97079.91;;;0.43;100.00
4814;BME280;15375;48.540;9.268;2022-11-14T06:03:49;97127.78;;;0.63;100.00
4814;BME280;15375;48.540;9.268;2022-11-14T06:06:17;97138.63;;;0.71;100.00
4814;BME280;15375;48.540;9.268;2022-11-14T06:08:43;97130.59;;;0.71;100.00
4814;BME280;15375;48.540;9.268;2022-11-14T06:11:12;97161.19;;;0.89;100.00
4814;BME280;15375;48.540;9.268;2022-11-14T06:13:38;97122.31;;;0.56;100.00
4814;BME280;15375;48.540;9.268;2022-11-14T06:16:06;97118.97;;;0.63;100.00
4814;BME280;15375;48.540;9.268;2022-11-14T06:18:34;97136.09;;;0.78;100.00
4814;BME280;15375;48.540;9.268;2022-11-14T06:21:01;97167.72;;;0.88;100.00
4814;BME280;15375;48.540;9.268;2022-11-14T06:23:27;97149.16;;;0.79;100.00
4814;BME280;15375;48.540;9.268;2022-11-14T06:25:57;97144.28;;;0.85;100.00
4814;BME280;15375;48.540;9.268;2022-11-14T06:28:23;97088.50;;;0.52;100.00
4814;BME280;15375;48.540;9.268;2022-11-14T06:30:49;97120.41;;;0.80;100.00
4814;BME280;15375;48.540;9.268;2022-11-14T06:33:14;97080.16;;;0.57;100.00
4814;BME280;15375;48.540;9.268;2022-11-14T06:35:39;97142.50;;;1.18;100.00
4814;BME280;15375;48.540;9.268;2022-11-14T06:38:04;97119.06;;;1.15;100.00
4814;BME280;15375;48.540;9.268;2022-11-14T06:40:30;97081.06;;;0.91;100.00
4814;BME280;15375;48.540;9.268;2022-11-14T06:42:55;97131.41;;;1.20;100.00
4814;BME280;15375;48.540;9.268;2022-11-14T06:45:20;97140.81;;;1.33;100.00
4814;BME280;15375;48.540;9.268;2022-11-14T06:47:46;97129.75;;;1.38;100.00
4814;BME280;15375;48.540;9.268;2022-11-14T06:50:11;97130.63;;;1.46;100.00
4814;BME280;15375;48.540;9.268;2022-11-14T06:52:37;97153.09;;;1.60;100.00
4814;BME280;15375;48.540;9.268;2022-11-14T06:55:02;97083.72;;;1.13;100.00
4814;BME280;15375;48.540;9.268;2022-11-14T06:57:28;97177.25;;;1.86;100.00
4814;BME280;15375;48.540;9.268;2022-11-14T06:59:53;97097.63;;;1.45;100.00
4814;BME280;15375;48.540;9.268;2022-11-14T07:02:18;97139.94;;;1.81;100.00
4814;BME280;15375;48.540;9.268;2022-11-14T07:04:43;97092.06;;;1.61;100.00
4814;BME280;15375;48.540;9.268;2022-11-14T07:07:09;97128.00;;;1.79;100.00
4814;BME280;15375;48.540;9.268;2022-11-14T07:09:34;97083.94;;;1.57;100.00
4814;BME280;15375;48.540;9.268;2022-11-14T07:11:59;97171.94;;;2.20;100.00
4814;BME280;15375;48.540;9.268;2022-11-14T07:14:25;97125.19;;;2.02;100.00
4814;BME280;15375;48.540;9.268;2022-11-14T07:16:52;97185.13;;;2.32;100.00
4814;BME280;15375;48.540;9.268;2022-11-14T07:19:20;97150.06;;;2.21;100.00
4814;BME280;15375;48.540;9.268;2022-11-14T07:21:46;97149.88;;;2.40;100.00
4814;BME280;15375;48.540;9.268;2022-11-14T07:24:12;97074.28;;;1.82;100.00
4814;BME280;15375;48.540;9.268;2022-11-14T07:26:37;97153.34;;;2.41;100.00
4814;BME280;15375;48.540;9.268;2022-11-14T07:29:03;97181.63;;;2.61;100.00
4814;BME280;15375;48.540;9.268;2022-11-14T07:31:28;97150.66;;;2.41;100.00
4814;BME280;15375;48.540;9.268;2022-11-14T07:33:54;97108.50;;;2.19;100.00
4814;BME280;15375;48.540;9.268;2022-11-14T07:36:19;97119.88;;;2.38;100.00
4814;BME280;15375;48.540;9.268;2022-11-14T07:38:44;97113.31;;;2.39;100.00
4814;BME280;15375;48.540;9.268;2022-11-14T07:41:12;97194.63;;;2.92;100.00
4814;BME280;15375;48.540;9.268;2022-11-14T07:43:39;97191.19;;;2.95;100.00
4814;BME280;15375;48.540;9.268;2022-11-14T07:46:10;97206.34;;;3.10;100.00
4814;BME280;15375;48.540;9.268;2022-11-14T07:48:36;97204.03;;;3.09;100.00
4814;BME280;15375;48.540;9.268;2022-11-14T07:51:05;97210.22;;;3.09;100.00
4814;BME280;15375;48.540;9.268;2022-11-14T07:53:32;97206.00;;;3.15;100.00
4814;BME280;15375;48.540;9.268;2022-11-14T07:56:02;97214.03;;;3.08;100.00
4814;BME280;15375;48.540;9.268;2022-11-14T07:58:28;97182.78;;;2.97;100.00
4814;BME280;15375;48.540;9.268;2022-11-14T08:00:53;97192.53;;;3.15;100.00
4814;BME280;15375;48.540;9.268;2022-11-14T08:03:18;97112.94;;;2.78;100.00
4814;BME280;15375;48.540;9.268;2022-11-14T08:05:44;97166.72;;;3.11;100.00
4814;BME280;15375;48.540;9.268;2022-11-14T08:08:09;97195.81;;;3.39;100.00
4814;BME280;15375;48.540;9.268;2022-11-14T08:10:34;97182.69;;;3.34;100.00
4814;BME280;15375;48.540;9.268;2022-11-14T08:13:04;97220.31;;;3.70;100.00
4814;BME280;15375;48.540;9.268;2022-11-14T08:15:30;97190.91;;;3.51;100.00
4814;BME280;15375;48.540;9.268;2022-11-14T08:17:57;97168.00;;;3.28;100.00
4814;BME280;15375;48.540;9.268;2022-11-14T08:20:22;97195.47;;;3.44;100.00
4814;BME280;15375;48.540;9.268;2022-11-14T08:22:47;97204.00;;;3.53;100.00
4814;BME280;15375;48.540;9.268;2022-11-14T08:25:13;97196.25;;;3.44;100.00
4814;BME280;15375;48.540;9.268;2022-11-14T08:27:38;97185.38;;;3.34;100.00
4814;BME280;15375;48.540;9.268;2022-11-14T08:30:04;97226.13;;;3.76;100.00
4814;BME280;15375;48.540;9.268;2022-11-14T08:32:29;97213.34;;;3.66;100.00
4814;BME280;15375;48.540;9.268;2022-11-14T08:34:55;97210.66;;;3.62;100.00
4814;BME280;15375;48.540;9.268;2022-11-14T08:37:20;97221.13;;;3.78;100.00
4814;BME280;15375;48.540;9.268;2022-11-14T08:39:45;97240.56;;;3.98;100.00
4814;BME280;15375;48.540;9.268;2022-11-14T08:42:11;97247.53;;;4.06;100.00
4814;BME280;15375;48.540;9.268;2022-11-14T08:44:36;97256.03;;;4.08;100.00
4814;BME280;15375;48.540;9.268;2022-11-14T08:47:02;97235.13;;;3.94;100.00
4814;BME280;15375;48.540;9.268;2022-11-14T08:49:28;97226.59;;;3.85;100.00
4814;BME280;15375;48.540;9.268;2022-11-14T08:51:53;97211.59;;;3.91;100.00
4814;BME280;15375;48.540;9.268;2022-11-14T08:54:19;97248.34;;;4.13;100.00
4814;BME280;15375;48.540;9.268;2022-11-14T08:56:45;97223.25;;;4.09;100.00
4814;BME280;15375;48.540;9.268;2022-11-14T08:59:10;97180.34;;;3.86;100.00
4814;BME280;15375;48.540;9.268;2022-11-14T09:01:35;97168.78;;;4.97;100.00
4814;BME280;15375;48.540;9.268;2022-11-14T09:04:01;97187.66;;;6.13;100.00
4814;BME280;15375;48.540;9.268;2022-11-14T09:06:26;97161.63;;;6.37;100.00
4814;BME280;15375;48.540;9.268;2022-11-14T09:08:52;97182.97;;;6.28;100.00
4814;BME280;15375;48.540;9.268;2022-11-14T09:11:17;97133.97;;;5.91;100.00
4814;BME280;15375;48.540;9.268;2022-11-14T09:13:42;97192.66;;;6.29;100.00
4814;BME280;15375;48.540;9.268;2022-11-14T09:16:08;97168.09;;;7.23;100.00
4814;BME280;15375;48.540;9.268;2022-11-14T09:18:33;97177.75;;;7.75;100.00
4814;BME280;15375;48.540;9.268;2022-11-14T09:21:04;97187.00;;;8.18;100.00
4814;BME280;15375;48.540;9.268;2022-11-14T09:23:30;97166.16;;;8.46;100.00
4814;BME280;15375;48.540;9.268;2022-11-14T09:25:55;97187.97;;;8.69;100.00
4814;BME280;15375;48.540;9.268;2022-11-14T09:28:24;97182.19;;;8.67;100.00
4814;BME280;15375;48.540;9.268;2022-11-14T09:30:49;97192.28;;;8.96;100.00
4814;BME280;15375;48.540;9.268;2022-11-14T09:33:15;97156.31;;;9.12;100.00
4814;BME280;15375;48.540;9.268;2022-11-14T09:35:40;97183.31;;;9.26;100.00
4814;BME280;15375;48.540;9.268;2022-11-14T09:38:08;97179.53;;;9.17;100.00
4814;BME280;15375;48.540;9.268;2022-11-14T09:43:46;97187.00;;;9.62;100.00
4814;BME280;15375;48.540;9.268;2022-11-14T09:46:24;97186.47;;;9.71;100.00
4814;BME280;15375;48.540;9.268;2022-11-14T09:48:51;97150.47;;;9.60;100.00
4814;BME280;15375;48.540;9.268;2022-11-14T09:51:27;97166.38;;;9.85;100.00
4814;BME280;15375;48.540;9.268;2022-11-14T09:54:20;97161.53;;;9.96;100.00
4814;BME280;15375;48.540;9.268;2022-11-14T09:56:47;97160.06;;;9.91;100.00
4814;BME280;15375;48.540;9.268;2022-11-14T09:59:13;97158.19;;;10.08;100.00
4814;BME280;15375;48.540;9.268;2022-11-14T10:01:56;97163.94;;;10.33;100.00
4814;BME280;15375;48.540;9.268;2022-11-14T10:04:31;97168.72;;;10.29;100.00
4814;BME280;15375;48.540;9.268;2022-11-14T10:07:35;97160.94;;;10.27;100.00
4814;BME280;15375;48.540;9.268;2022-11-14T10:15:17;97135.72;;;10.43;100.00
4814;BME280;15375;48.540;9.268;2022-11-14T10:23:00;97166.19;;;10.38;100.00
4814;BME280;15375;48.540;9.268;2022-11-14T10:31:04;97124.00;;;10.62;100.00
4814;BME280;15375;48.540;9.268;2022-11-14T10:34:08;97145.19;;;10.74;100.00
4814;BME280;15375;48.540;9.268;2022-11-14T10:41:54;97110.34;;;10.62;100.00
4814;BME280;15375;48.540;9.268;2022-11-14T10:44:35;97153.78;;;10.73;100.00
4814;BME280;15375;48.540;9.268;2022-11-14T10:47:07;97111.34;;;10.52;100.00
4814;BME280;15375;48.540;9.268;2022-11-14T10:49:35;97143.78;;;10.66;100.00
4814;BME280;15375;48.540;9.268;2022-11-14T10:52:05;97109.06;;;10.51;100.00
4814;BME280;15375;48.540;9.268;2022-11-14T10:54:36;97161.50;;;10.94;100.00
4814;BME280;15375;48.540;9.268;2022-11-14T10:57:12;97161.84;;;10.96;100.00
4814;BME280;15375;48.540;9.268;2022-11-14T10:59:38;97152.59;;;11.10;100.00
4814;BME280;15375;48.540;9.268;2022-11-14T11:02:04;97130.56;;;11.01;100.00
4814;BME280;15375;48.540;9.268;2022-11-14T11:04:35;97153.88;;;11.21;100.00
4814;BME280;15375;48.540;9.268;2022-11-14T11:09:37;97154.09;;;11.11;100.00
4814;BME280;15375;48.540;9.268;2022-11-14T11:12:40;97144.31;;;11.13;100.00
4814;BME280;15375;48.540;9.268;2022-11-14T11:15:22;97151.56;;;11.20;100.00
4814;BME280;15375;48.540;9.268;2022-11-14T11:21:15;97129.81;;;11.16;100.00
4814;BME280;15375;48.540;9.268;2022-11-14T11:24:07;97135.78;;;11.27;99.95
4814;BME280;15375;48.540;9.268;2022-11-14T11:26:33;97117.28;;;11.19;100.00
4814;BME280;15375;48.540;9.268;2022-11-14T11:34:27;97140.78;;;11.13;100.00
4814;BME280;15375;48.540;9.268;2022-11-14T11:37:04;97146.69;;;11.11;100.00
4814;BME280;15375;48.540;9.268;2022-11-14T11:39:39;97143.38;;;11.20;99.77
4814;BME280;15375;48.540;9.268;2022-11-14T11:42:10;97121.84;;;11.06;100.00
4814;BME280;15375;48.540;9.268;2022-11-14T11:44:43;97131.44;;;11.14;99.53
4814;BME280;15375;48.540;9.268;2022-11-14T11:47:12;97149.06;;;11.25;99.45
4814;BME280;15375;48.540;9.268;2022-11-14T11:49:44;97162.13;;;11.18;100.00
4814;BME280;15375;48.540;9.268;2022-11-14T11:52:37;97104.72;;;11.05;99.17
4814;BME280;15375;48.540;9.268;2022-11-14T11:57:46;97120.50;;;11.14;100.00
4814;BME280;15375;48.540;9.268;2022-11-14T12:00:18;97128.34;;;11.28;100.00
4814;BME280;15375;48.540;9.268;2022-11-14T12:02:49;97103.19;;;11.20;98.56
4814;BME280;15375;48.540;9.268;2022-11-14T12:05:41;97125.88;;;11.33;98.99
4814;BME280;15375;48.540;9.268;2022-11-14T12:08:25;97107.97;;;11.16;99.74
4814;BME280;15375;48.540;9.268;2022-11-14T12:10:55;97115.31;;;11.19;100.00
4814;BME280;15375;48.540;9.268;2022-11-14T12:19:08;97112.81;;;11.41;98.32
4814;BME280;15375;48.540;9.268;2022-11-14T12:22:04;97099.31;;;11.66;96.42
4814;BME280;15375;48.540;9.268;2022-11-14T12:30:17;97119.44;;;12.46;91.20
4814;BME280;15375;48.540;9.268;2022-11-14T12:33:44;97124.25;;;12.54;91.12
4814;BME280;15375;48.540;9.268;2022-11-14T12:35:47;97146.03;;;12.58;90.01
4814;BME280;15375;48.540;9.268;2022-11-14T12:38:15;97114.16;;;12.51;88.78
4814;BME280;15375;48.540;9.268;2022-11-14T12:40:53;97107.63;;;12.74;88.34
4814;BME280;15375;48.540;9.268;2022-11-14T12:43:39;97115.00;;;13.27;86.64
4814;BME280;15375;48.540;9.268;2022-11-14T12:46:11;97121.44;;;13.46;86.41
4814;BME280;15375;48.540;9.268;2022-11-14T12:48:40;97105.66;;;13.37;84.24
4814;BME280;15375;48.540;9.268;2022-11-14T12:53:52;97114.41;;;13.58;84.81
4814;BME280;15375;48.540;9.268;2022-11-14T12:59:33;97112.50;;;13.20;84.98
4814;BME280;15375;48.540;9.268;2022-11-14T13:05:21;97118.25;;;12.97;87.52
4814;BME280;15375;48.540;9.268;2022-11-14T13:08:00;97092.00;;;13.12;86.37
4814;BME280;15375;48.540;9.268;2022-11-14T13:10:36;97096.59;;;13.15;85.28
4814;BME280;15375;48.540;9.268;2022-11-14T13:15:52;97091.44;;;13.30;84.46
4814;BME280;15375;48.540;9.268;2022-11-14T13:19:02;97114.00;;;13.47;84.31
4814;BME280;15375;48.540;9.268;2022-11-14T13:27:32;97091.66;;;13.70;82.17
4814;BME280;15375;48.540;9.268;2022-11-14T13:29:58;97102.41;;;13.77;81.82
4814;BME280;15375;48.540;9.268;2022-11-14T13:35:28;97102.63;;;13.70;82.36
4814;BME280;15375;48.540;9.268;2022-11-14T13:40:53;97112.41;;;13.71;84.09
4814;BME280;15375;48.540;9.268;2022-11-14T13:46:43;97099.78;;;13.73;82.96
4814;BME280;15375;48.540;9.268;2022-11-14T13:49:06;97101.88;;;13.69;83.38
4814;BME280;15375;48.540;9.268;2022-11-14T13:51:35;97088.44;;;13.50;83.57
4814;BME280;15375;48.540;9.268;2022-11-14T13:54:02;97083.63;;;13.54;84.38
4814;BME280;15375;48.540;9.268;2022-11-14T13:56:40;97093.28;;;13.46;84.18
4814;BME280;15375;48.540;9.268;2022-11-14T14:05:15;97088.34;;;13.40;83.28
4814;BME280;15375;48.540;9.268;2022-11-14T14:26:34;97100.31;;;12.84;86.52
4814;BME280;15375;48.540;9.268;2022-11-14T14:31:43;97103.69;;;12.62;87.83
4814;BME280;15375;48.540;9.268;2022-11-14T14:34:27;97090.44;;;12.48;87.55
4814;BME280;15375;48.540;9.268;2022-11-14T14:36:55;97090.97;;;12.43;87.54
4814;BME280;15375;48.540;9.268;2022-11-14T14:39:23;97100.94;;;12.50;87.71
4814;BME280;15375;48.540;9.268;2022-11-14T14:41:53;97086.00;;;12.26;88.01
4814;BME280;15375;48.540;9.268;2022-11-14T14:44:45;97126.28;;;12.38;88.75
4814;BME280;15375;48.540;9.268;2022-11-14T14:47:38;97123.00;;;12.30;89.29
4814;BME280;15375;48.540;9.268;2022-11-14T14:50:14;97121.75;;;12.18;89.52
4814;BME280;15375;48.540;9.268;2022-11-14T14:52:40;97112.22;;;12.10;90.04
4814;BME280;15375;48.540;9.268;2022-11-14T14:55:15;97129.41;;;12.24;88.77
4814;BME280;15375;48.540;9.268;2022-11-14T14:57:42;97113.97;;;12.17;88.44
4814;BME280;15375;48.540;9.268;2022-11-14T15:00:25;97110.75;;;12.06;89.34
4814;BME280;15375;48.540;9.268;2022-11-14T15:02:57;97132.00;;;12.14;88.52
4814;BME280;15375;48.540;9.268;2022-11-14T15:05:25;97149.19;;;12.15;89.39